createdAt,value
2022-10-06T00:03:46.373Z,29.08
2022-10-06T00:07:48.352Z,23.38
2022-10-06T00:11:50.031Z,25.52
2022-10-06T00:15:52.454Z,30.05
2022-10-06T00:19:54.222Z,22.50
2022-10-06T00:23:56.039Z,20.20
2022-10-06T00:27:57.714Z,22.10
2022-10-06T00:31:59.738Z,19.65
2022-10-06T00:36:01.992Z,23.40
2022-10-06T00:40:09.691Z,23.48
2022-10-06T00:44:11.427Z,19.90
2022-10-06T00:48:24.018Z,17.55
2022-10-06T00:52:29.363Z,22.50
2022-10-06T00:56:31.569Z,19.42
2022-10-06T01:00:33.665Z,23.50
2022-10-06T01:04:38.235Z,22.02
2022-10-06T01:08:40.399Z,22.75
2022-10-06T01:12:42.886Z,19.35
2022-10-06T01:16:49.543Z,24.50
2022-10-06T01:21:03.468Z,25.88
2022-10-06T01:25:08.286Z,24.73
2022-10-06T01:29:10.475Z,23.92
2022-10-06T01:33:13.036Z,30.73
2022-10-06T01:37:16.284Z,25.42
2022-10-06T01:41:18.103Z,19.77
2022-10-06T01:45:21.444Z,26.52
2022-10-06T01:49:23.103Z,27.20
2022-10-06T01:53:25.173Z,22.75
2022-10-06T01:57:27.104Z,23.10
2022-10-06T02:01:29.179Z,26.98
2022-10-06T02:05:31.300Z,30.20
2022-10-06T02:09:33.461Z,24.88
2022-10-06T02:13:39.139Z,27.75
2022-10-06T02:17:41.004Z,23.83
2022-10-06T02:21:42.871Z,22.48
2022-10-06T02:25:44.800Z,20.55
2022-10-06T02:29:46.777Z,20.00
2022-10-06T02:33:49.961Z,21.33
2022-10-06T02:38:18.316Z,18.03
2022-10-06T02:42:20.319Z,20.75
2022-10-06T02:46:22.615Z,16.38
2022-10-06T02:50:26.399Z,22.20
2022-10-06T02:54:28.206Z,15.65
2022-10-06T02:58:31.124Z,13.20
2022-10-06T03:02:37.950Z,21.00
2022-10-06T03:06:40.158Z,20.92
2022-10-06T03:10:46.367Z,19.30
2022-10-06T03:14:48.644Z,19.67
2022-10-06T03:18:53.163Z,19.13
2022-10-06T03:23:01.827Z,24.92
2022-10-06T03:27:03.755Z,17.95
2022-10-06T03:31:06.355Z,14.15
2022-10-06T03:35:08.731Z,17.40
2022-10-06T03:39:10.717Z,16.25
2022-10-06T03:43:13.316Z,18.15
2022-10-06T03:47:17.517Z,18.25
2022-10-06T03:51:23.740Z,20.65
2022-10-06T03:55:26.336Z,16.17
2022-10-06T03:59:31.510Z,23.80
2022-10-06T04:03:34.583Z,22.40
2022-10-06T04:07:37.109Z,21.30
2022-10-06T04:11:40.562Z,18.40
2022-10-06T04:15:43.500Z,14.30
2022-10-06T04:19:45.528Z,16.20
2022-10-06T04:24:13.586Z,14.15
2022-10-06T04:28:18.502Z,16.77
2022-10-06T04:32:20.513Z,13.68
2022-10-06T04:36:31.327Z,14.60
2022-10-06T04:40:33.517Z,14.15
2022-10-06T04:44:35.427Z,13.00
2022-10-06T04:48:38.228Z,15.60
2022-10-06T04:52:40.166Z,15.32
2022-10-06T04:56:42.029Z,19.48
2022-10-06T05:00:45.145Z,17.50
2022-10-06T05:04:46.887Z,15.75
2022-10-06T05:08:53.567Z,14.57
2022-10-06T05:12:57.454Z,17.45
2022-10-06T05:16:59.655Z,16.65
2022-10-06T05:21:07.546Z,15.38
2022-10-06T05:25:09.703Z,15.57
2022-10-06T05:29:11.487Z,15.43
2022-10-06T05:33:14.332Z,21.52
2022-10-06T05:37:16.161Z,20.95
2022-10-06T05:41:24.108Z,21.50
2022-10-06T05:45:26.665Z,20.73
2022-10-06T05:49:28.640Z,22.65
2022-10-06T05:53:35.770Z,18.83
2022-10-06T05:57:39.129Z,23.85
2022-10-06T06:01:43.307Z,18.45
2022-10-06T06:05:52.479Z,15.45
2022-10-06T06:09:54.334Z,21.63
2022-10-06T06:13:56.919Z,15.23
2022-10-06T06:17:58.730Z,18.83
2022-10-06T06:22:00.828Z,24.50
2022-10-06T06:26:06.858Z,15.82
2022-10-06T06:30:12.545Z,15.00
2022-10-06T06:34:15.764Z,15.35
2022-10-06T06:38:18.954Z,13.07
2022-10-06T06:42:22.587Z,13.27
2022-10-06T06:46:45.815Z,10.82
2022-10-06T06:51:15.257Z,18.35
2022-10-06T06:55:17.402Z,15.90
2022-10-06T06:59:20.444Z,13.73
2022-10-06T07:03:45.233Z,12.02
2022-10-06T07:07:47.684Z,15.40
2022-10-06T07:11:50.250Z,10.80
2022-10-06T07:16:13.768Z,11.90
2022-10-06T07:20:34.725Z,14.80
2022-10-06T07:24:55.501Z,9.85
2022-10-06T07:29:01.341Z,10.75
2022-10-06T07:33:05.090Z,16.75
2022-10-06T07:37:09.070Z,14.55
2022-10-06T07:41:19.688Z,10.77
2022-10-06T07:45:39.309Z,14.05
2022-10-06T07:49:46.369Z,17.83
2022-10-06T07:54:13.258Z,11.07
2022-10-06T07:58:26.048Z,12.63
2022-10-06T08:02:31.475Z,15.50
2022-10-06T08:06:36.707Z,13.00
2022-10-06T08:10:38.337Z,10.25
2022-10-06T08:14:40.338Z,11.52
2022-10-06T08:18:46.380Z,13.82
2022-10-06T08:22:49.040Z,17.02
2022-10-06T08:26:50.866Z,19.65
2022-10-06T08:30:52.815Z,13.70
2022-10-06T08:34:54.780Z,10.48
2022-10-06T08:38:56.947Z,16.02
2022-10-06T08:43:01.155Z,10.32
2022-10-06T08:47:11.757Z,9.25
2022-10-06T08:51:33.818Z,10.85
2022-10-06T08:56:04.273Z,12.68
2022-10-06T09:00:11.524Z,10.98
2022-10-06T09:04:28.246Z,8.45
2022-10-06T09:08:53.666Z,9.68
2022-10-06T09:13:06.636Z,11.80
2022-10-06T09:17:18.807Z,13.20
2022-10-06T09:21:30.563Z,10.70
2022-10-06T09:25:33.532Z,17.38
2022-10-06T09:29:35.599Z,8.57
2022-10-06T09:33:39.921Z,8.00
2022-10-06T09:37:56.579Z,12.43
2022-10-06T09:42:02.788Z,13.25
2022-10-06T09:46:29.375Z,12.82
2022-10-06T09:50:30.977Z,9.48
2022-10-06T09:54:34.869Z,8.20
2022-10-06T09:58:39.147Z,11.57
2022-10-06T10:02:41.184Z,14.80
2022-10-06T10:06:43.269Z,11.57
2022-10-06T10:10:45.065Z,11.82
2022-10-06T10:14:46.727Z,9.98
2022-10-06T10:18:50.916Z,6.97
2022-10-06T10:22:53.507Z,8.77
2022-10-06T10:27:04.374Z,7.78
2022-10-06T10:31:13.957Z,7.55
2022-10-06T10:35:25.033Z,11.32
2022-10-06T10:39:42.235Z,10.15
2022-10-06T10:43:51.395Z,7.18
2022-10-06T10:47:54.123Z,13.75
2022-10-06T10:52:07.163Z,4.78
2022-10-06T10:56:11.923Z,8.52
2022-10-06T11:00:22.958Z,7.60
2022-10-06T11:04:26.220Z,7.63
2022-10-06T11:09:09.751Z,12.93
2022-10-06T11:13:29.391Z,7.72
2022-10-06T11:17:44.239Z,9.65
2022-10-06T11:22:02.668Z,15.23
2022-10-06T11:26:27.049Z,14.60
2022-10-06T11:30:30.538Z,18.90
2022-10-06T11:34:32.568Z,9.95
2022-10-06T11:38:47.541Z,7.20
2022-10-06T11:43:01.099Z,13.43
2022-10-06T11:47:10.805Z,8.48
2022-10-06T11:51:25.259Z,8.65
2022-10-06T11:55:28.949Z,9.50
2022-10-06T11:59:31.686Z,5.53
2022-10-06T12:03:44.617Z,8.50
2022-10-06T12:07:52.565Z,11.18
2022-10-06T12:12:03.349Z,4.68
2022-10-06T12:21:09.983Z,4.38
2022-10-06T12:25:25.134Z,9.10
2022-10-06T12:29:50.701Z,7.07
2022-10-06T12:33:52.883Z,10.65
2022-10-06T12:37:58.325Z,8.07
2022-10-06T12:42:01.727Z,7.10
2022-10-06T12:46:12.297Z,5.97
2022-10-06T12:50:22.586Z,6.43
2022-10-06T12:54:35.532Z,8.30
2022-10-06T12:58:37.410Z,10.13
2022-10-06T13:02:43.989Z,8.75
2022-10-06T13:06:49.726Z,7.25
2022-10-06T13:10:52.055Z,6.00
2022-10-06T13:15:17.245Z,8.18
2022-10-06T13:19:26.645Z,8.20
2022-10-06T13:23:31.331Z,4.88
2022-10-06T13:27:33.267Z,7.80
2022-10-06T13:31:36.673Z,6.43
2022-10-06T13:35:38.800Z,8.32
2022-10-06T13:39:40.928Z,17.70
2022-10-06T13:43:46.364Z,38.35
2022-10-06T13:47:48.268Z,11.23
2022-10-06T13:51:53.006Z,18.67
2022-10-06T14:00:51.939Z,7.15
2022-10-06T14:05:19.403Z,5.97
2022-10-06T14:09:27.136Z,2.42
2022-10-06T14:13:37.785Z,4.93
2022-10-06T14:17:40.962Z,6.30
2022-10-06T14:21:45.104Z,11.05
2022-10-06T14:25:49.312Z,8.02
2022-10-06T14:29:51.140Z,3.00
2022-10-06T14:33:55.073Z,4.20
2022-10-06T14:37:56.751Z,10.63
2022-10-06T14:41:58.755Z,5.70
2022-10-06T14:46:03.970Z,6.05
2022-10-06T14:50:08.509Z,2.83
2022-10-06T14:54:11.323Z,3.50
2022-10-06T14:58:13.322Z,5.60
2022-10-06T15:02:15.729Z,4.10
2022-10-06T15:06:36.649Z,6.65
2022-10-06T15:10:39.097Z,6.15
2022-10-06T15:14:40.998Z,5.57
2022-10-06T15:18:43.039Z,4.88
2022-10-06T15:22:44.860Z,3.15
2022-10-06T15:27:05.999Z,3.78
2022-10-06T15:31:08.123Z,9.70
2022-10-06T15:35:10.133Z,6.05
2022-10-06T15:39:13.955Z,4.15
2022-10-06T15:43:35.608Z,5.00
2022-10-06T15:47:37.640Z,5.93
2022-10-06T15:51:45.115Z,9.23
2022-10-06T15:55:47.024Z,25.10
2022-10-06T15:59:49.050Z,8.23
2022-10-06T16:03:51.416Z,9.57
2022-10-06T16:07:53.216Z,5.80
2022-10-06T16:11:56.455Z,6.68
2022-10-06T16:15:58.229Z,7.95
2022-10-06T16:20:00.089Z,6.93
2022-10-06T16:24:02.353Z,10.30
2022-10-06T16:28:04.270Z,4.63
2022-10-06T16:32:06.012Z,8.52
2022-10-06T16:36:09.402Z,5.10
2022-10-06T16:40:11.145Z,5.25
2022-10-06T16:44:13.141Z,7.70
2022-10-06T16:48:41.555Z,7.53
2022-10-06T16:52:43.481Z,7.85
2022-10-06T16:56:47.818Z,4.90
2022-10-06T17:00:57.406Z,8.82
2022-10-06T17:04:59.109Z,6.63
2022-10-06T17:09:01.413Z,4.70
2022-10-06T17:13:03.100Z,6.35
2022-10-06T17:17:05.690Z,4.10
2022-10-06T17:21:32.218Z,7.43
2022-10-06T17:25:32.099Z,8.02
2022-10-06T17:29:33.736Z,8.70
2022-10-06T17:33:38.847Z,19.05
2022-10-06T17:37:40.532Z,27.27
2022-10-06T17:41:44.169Z,28.20
2022-10-06T17:45:47.808Z,22.95
2022-10-06T17:49:49.878Z,11.00
2022-10-06T17:53:54.270Z,9.52
2022-10-06T17:57:58.618Z,7.43
2022-10-06T18:02:02.771Z,16.90
2022-10-06T18:06:06.615Z,15.68
2022-10-06T18:10:27.353Z,20.02
2022-10-06T18:14:34.344Z,16.15
2022-10-06T18:18:36.043Z,19.85
2022-10-06T18:22:38.157Z,22.83
2022-10-06T18:26:42.006Z,22.90
2022-10-06T18:31:08.984Z,26.13
2022-10-06T18:39:33.549Z,15.77
2022-10-06T18:43:35.567Z,15.05
2022-10-06T18:47:56.054Z,12.15
2022-10-06T18:51:58.608Z,18.23
2022-10-06T18:56:00.383Z,12.57
2022-10-06T19:00:04.050Z,20.10
2022-10-06T19:04:09.731Z,17.05
2022-10-06T19:08:11.999Z,33.13
2022-10-06T19:12:14.116Z,33.38
2022-10-06T19:16:17.581Z,39.72
2022-10-06T19:20:19.298Z,35.25
2022-10-06T19:24:21.908Z,32.42
2022-10-06T19:28:23.532Z,38.03
2022-10-06T19:32:28.239Z,35.15
2022-10-06T19:36:29.987Z,62.85
2022-10-06T19:40:31.965Z,51.08
2022-10-06T19:44:34.046Z,60.95
2022-10-06T19:48:36.866Z,55.25
2022-10-06T19:52:38.818Z,57.58
2022-10-06T19:56:41.417Z,63.28
2022-10-06T20:00:43.452Z,98.60
2022-10-06T20:04:45.499Z,91.22
2022-10-06T20:08:47.335Z,187.95
2022-10-06T20:12:49.191Z,222.90
2022-10-06T20:16:52.601Z,183.82
2022-10-06T20:20:58.800Z,171.55
2022-10-06T20:25:01.965Z,164.25
2022-10-06T20:29:07.118Z,148.85
2022-10-06T20:33:09.460Z,117.15
2022-10-06T20:37:11.483Z,133.80
2022-10-06T20:41:17.692Z,141.25
2022-10-06T20:45:20.117Z,155.10
2022-10-06T20:49:22.038Z,145.98
2022-10-06T20:53:31.462Z,149.38
2022-10-06T20:57:34.033Z,145.85
2022-10-06T21:01:37.346Z,119.55
2022-10-06T21:05:39.124Z,91.93
2022-10-06T21:09:41.087Z,77.35
2022-10-06T21:13:50.363Z,91.10
2022-10-06T21:17:52.266Z,68.30
2022-10-06T21:21:55.434Z,73.32
2022-10-06T21:26:01.305Z,64.45
2022-10-06T21:30:03.192Z,79.15
2022-10-06T21:34:05.236Z,72.82
2022-10-06T21:38:07.232Z,63.50
2022-10-06T21:42:09.200Z,73.00
2022-10-06T21:46:27.147Z,58.42
2022-10-06T21:50:30.170Z,64.80
2022-10-06T21:54:31.937Z,56.55
2022-10-06T21:58:34.039Z,57.40
2022-10-06T22:02:35.860Z,54.53
2022-10-06T22:06:37.744Z,54.45
2022-10-06T22:10:39.332Z,48.88
2022-10-06T22:14:41.230Z,58.10
2022-10-06T22:18:43.038Z,48.00
2022-10-06T22:22:44.928Z,52.00
2022-10-06T22:26:47.929Z,50.50
2022-10-06T22:30:50.308Z,40.97
2022-10-06T22:34:51.955Z,44.28
2022-10-06T22:38:55.085Z,49.20
2022-10-06T22:42:56.697Z,43.78
2022-10-06T22:46:58.586Z,43.90
2022-10-06T22:51:00.836Z,42.42
2022-10-06T22:55:02.661Z,45.83
2022-10-06T22:59:04.348Z,41.35
2022-10-06T23:03:06.664Z,45.53
2022-10-06T23:07:13.161Z,43.72
2022-10-06T23:11:17.883Z,41.45
2022-10-06T23:15:19.764Z,48.30
2022-10-06T23:19:21.834Z,43.97
2022-10-06T23:23:23.524Z,39.70
2022-10-06T23:27:25.812Z,40.75
2022-10-06T23:31:28.841Z,37.75
2022-10-06T23:35:30.820Z,38.97
2022-10-06T23:39:32.570Z,42.72
2022-10-06T23:43:34.987Z,45.13
2022-10-06T23:47:36.531Z,46.03
2022-10-06T23:51:38.550Z,44.45
2022-10-06T23:55:40.190Z,44.30
2022-10-06T23:59:42.316Z,45.33
